createdAt,value
2022-10-31T00:01:16.352Z,98922.67
2022-10-31T00:03:43.089Z,98922.26
2022-10-31T00:06:10.336Z,98921.67
2022-10-31T00:08:37.446Z,98925.96
2022-10-31T00:11:04.285Z,98923.77
2022-10-31T00:13:31.015Z,98923.81
2022-10-31T00:15:57.698Z,98928.70
2022-10-31T00:18:24.415Z,98927.27
2022-10-31T00:20:59.838Z,98929.17
2022-10-31T00:23:26.676Z,98930.14
2022-10-31T00:25:53.372Z,98928.41
2022-10-31T00:30:51.596Z,98932.10
2022-10-31T00:33:18.329Z,98932.02
2022-10-31T00:35:51.577Z,98930.77
2022-10-31T00:38:18.289Z,98931.05
2022-10-31T00:40:44.937Z,98932.80
2022-10-31T00:45:44.250Z,98934.52
2022-10-31T00:48:11.270Z,98932.11
2022-10-31T00:50:38.367Z,98933.64
2022-10-31T00:53:05.139Z,98931.20
2022-10-31T00:55:31.834Z,98934.21
2022-10-31T00:57:59.144Z,98934.98
2022-10-31T01:00:26.841Z,98934.09
2022-10-31T01:02:53.568Z,98945.09
2022-10-31T01:05:20.449Z,98941.45
2022-10-31T01:07:47.442Z,98940.20
2022-10-31T01:10:14.793Z,98941.34
2022-10-31T01:12:44.896Z,98947.56
2022-10-31T01:15:14.351Z,98944.52
2022-10-31T01:17:41.940Z,98946.41
2022-10-31T01:20:13.312Z,98945.62
2022-10-31T01:22:40.076Z,98947.27
2022-10-31T01:25:08.328Z,98944.52
2022-10-31T01:27:35.135Z,98941.75
2022-10-31T01:30:02.237Z,98940.02
2022-10-31T01:32:30.535Z,98940.69
2022-10-31T01:34:58.791Z,98941.27
2022-10-31T01:37:25.561Z,98944.27
2022-10-31T01:39:52.278Z,98941.30
2022-10-31T01:42:22.240Z,98937.08
2022-10-31T01:44:54.257Z,98940.92
2022-10-31T01:47:40.585Z,98936.41
2022-10-31T01:50:16.365Z,98938.17
2022-10-31T01:52:48.959Z,98933.73
2022-10-31T01:55:26.445Z,98932.77
2022-10-31T01:58:00.395Z,98932.48
2022-10-31T02:00:27.576Z,98931.69
2022-10-31T02:02:57.433Z,98939.70
2022-10-31T02:05:28.330Z,98933.35
2022-10-31T02:08:15.263Z,98931.59
2022-10-31T02:10:44.167Z,98934.25
2022-10-31T02:13:13.975Z,98934.56
2022-10-31T02:15:50.990Z,98933.62
2022-10-31T02:18:19.677Z,98932.43
2022-10-31T02:20:59.739Z,98928.17
2022-10-31T02:23:34.939Z,98927.48
2022-10-31T02:26:34.788Z,98928.60
2022-10-31T02:29:20.281Z,98931.59
2022-10-31T02:31:46.971Z,98934.56
2022-10-31T02:34:35.629Z,98935.47
2022-10-31T02:37:14.634Z,98934.77
2022-10-31T02:39:56.525Z,98939.33
2022-10-31T02:42:39.690Z,98944.80
2022-10-31T02:45:15.638Z,98946.31
2022-10-31T02:47:42.922Z,98952.33
2022-10-31T02:50:20.705Z,98950.00
2022-10-31T02:52:52.936Z,98950.27
2022-10-31T02:55:27.159Z,98954.29
2022-10-31T02:58:04.086Z,98953.82
2022-10-31T03:00:37.960Z,98953.98
2022-10-31T03:03:10.220Z,98954.29
2022-10-31T03:05:59.508Z,98955.10
2022-10-31T03:08:36.621Z,98958.23
2022-10-31T03:11:08.146Z,98965.36
2022-10-31T03:13:52.144Z,98961.73
2022-10-31T03:16:41.478Z,98960.20
2022-10-31T03:19:15.709Z,98966.04
2022-10-31T03:21:47.928Z,98966.59
2022-10-31T03:24:17.288Z,98963.48
2022-10-31T03:26:48.694Z,98963.55
2022-10-31T03:29:18.967Z,98959.86
2022-10-31T03:31:51.838Z,98960.75
2022-10-31T03:34:20.947Z,98963.49
2022-10-31T03:36:50.869Z,98966.18
2022-10-31T03:39:21.832Z,98961.71
2022-10-31T03:41:58.270Z,98966.42
2022-10-31T03:44:30.654Z,98966.84
2022-10-31T03:47:01.595Z,98970.41
2022-10-31T03:49:29.223Z,98970.67
2022-10-31T03:52:08.641Z,98977.63
2022-10-31T03:54:43.120Z,98978.23
2022-10-31T03:57:20.519Z,98981.52
2022-10-31T03:59:54.289Z,98981.13
2022-10-31T04:02:27.091Z,98983.06
2022-10-31T04:04:54.360Z,98987.34
2022-10-31T04:07:24.653Z,98985.72
2022-10-31T04:09:53.033Z,98985.14
2022-10-31T04:12:24.138Z,98989.08
2022-10-31T04:15:05.673Z,98985.23
2022-10-31T04:17:39.203Z,98991.63
2022-10-31T04:20:06.928Z,98991.73
2022-10-31T04:22:34.220Z,98987.30
2022-10-31T04:25:00.874Z,98991.84
2022-10-31T04:27:28.326Z,98991.38
2022-10-31T04:29:55.085Z,98993.77
2022-10-31T04:32:21.870Z,98995.88
2022-10-31T04:34:48.749Z,98997.90
2022-10-31T04:37:15.460Z,98994.73
2022-10-31T04:39:42.631Z,98997.46
2022-10-31T04:42:24.703Z,98994.09
2022-10-31T04:44:51.947Z,98996.27
2022-10-31T04:47:18.997Z,98996.84
2022-10-31T04:49:45.751Z,98998.35
2022-10-31T04:52:12.769Z,98998.36
2022-10-31T04:54:40.404Z,98997.11
2022-10-31T04:57:22.895Z,98994.45
2022-10-31T04:59:49.913Z,98993.39
2022-10-31T05:02:16.671Z,98998.77
2022-10-31T05:04:50.920Z,98994.63
2022-10-31T05:07:18.197Z,98991.67
2022-10-31T05:09:44.886Z,98993.98
2022-10-31T05:12:12.888Z,98988.23
2022-10-31T05:14:59.690Z,98994.83
2022-10-31T05:17:46.939Z,98992.80
2022-10-31T05:20:15.664Z,98989.63
2022-10-31T05:23:02.482Z,98999.54
2022-10-31T05:25:30.008Z,99004.39
2022-10-31T05:27:58.109Z,99004.45
2022-10-31T05:30:28.517Z,99006.79
2022-10-31T05:32:55.650Z,99008.42
2022-10-31T05:35:42.402Z,99011.36
2022-10-31T05:38:24.690Z,99012.79
2022-10-31T05:40:54.974Z,99014.55
2022-10-31T05:43:22.221Z,99016.59
2022-10-31T05:45:53.767Z,99019.64
2022-10-31T05:48:40.538Z,99016.91
2022-10-31T05:51:27.154Z,99020.64
2022-10-31T05:53:53.928Z,99025.83
2022-10-31T05:56:21.190Z,99028.56
2022-10-31T05:58:47.945Z,99030.05
2022-10-31T06:01:14.844Z,99030.58
2022-10-31T06:03:41.762Z,99031.52
2022-10-31T06:06:09.900Z,99032.36
2022-10-31T06:08:38.558Z,99034.44
2022-10-31T06:11:07.794Z,99034.23
2022-10-31T06:13:50.211Z,99034.92
2022-10-31T06:16:22.151Z,99038.85
2022-10-31T06:18:50.156Z,99038.73
2022-10-31T06:21:19.005Z,99043.27
2022-10-31T06:23:46.290Z,99040.88
2022-10-31T06:26:28.494Z,99046.01
2022-10-31T06:28:56.872Z,99046.72
2022-10-31T06:31:44.971Z,99042.02
2022-10-31T06:34:11.719Z,99045.25
2022-10-31T06:36:38.427Z,99046.38
2022-10-31T06:39:06.114Z,99044.60
2022-10-31T06:41:32.954Z,99051.36
2022-10-31T06:44:03.459Z,99052.39
2022-10-31T06:46:48.768Z,99057.23
2022-10-31T06:49:31.027Z,99055.80
2022-10-31T06:52:01.950Z,99055.94
2022-10-31T06:54:29.793Z,99054.89
2022-10-31T06:56:56.898Z,99055.75
2022-10-31T06:59:25.144Z,99058.80
2022-10-31T07:02:11.554Z,99054.57
2022-10-31T07:04:39.477Z,99059.13
2022-10-31T07:07:06.282Z,99056.66
2022-10-31T07:09:33.222Z,99056.27
2022-10-31T07:12:02.383Z,99062.45
2022-10-31T07:14:29.854Z,99063.60
2022-10-31T07:16:56.657Z,99059.01
2022-10-31T07:19:27.186Z,99067.62
2022-10-31T07:21:54.285Z,99063.73
2022-10-31T07:24:20.980Z,99067.39
2022-10-31T07:27:03.521Z,99069.28
2022-10-31T07:29:30.372Z,99069.00
2022-10-31T07:31:57.210Z,99065.54
2022-10-31T07:34:26.150Z,99068.70
2022-10-31T07:37:08.591Z,99071.23
2022-10-31T07:39:36.517Z,99072.82
2022-10-31T07:42:03.333Z,99073.68
2022-10-31T07:44:31.302Z,99074.11
2022-10-31T07:47:13.708Z,99070.28
2022-10-31T07:49:56.039Z,99069.50
2022-10-31T07:52:38.726Z,99073.00
2022-10-31T07:55:21.032Z,99073.76
2022-10-31T07:57:57.037Z,99072.48
2022-10-31T08:00:23.921Z,99063.17
2022-10-31T08:02:59.207Z,99065.25
2022-10-31T08:05:42.252Z,99068.51
2022-10-31T08:08:25.177Z,99066.32
2022-10-31T08:10:51.862Z,99067.41
2022-10-31T08:13:18.589Z,99068.17
2022-10-31T08:15:51.154Z,99066.05
2022-10-31T08:18:18.687Z,99067.86
2022-10-31T08:20:45.821Z,99066.66
2022-10-31T08:23:14.485Z,99067.11
2022-10-31T08:25:42.993Z,99064.48
2022-10-31T08:28:12.500Z,99063.23
2022-10-31T08:30:41.046Z,99058.74
2022-10-31T08:33:23.084Z,99059.86
2022-10-31T08:36:06.138Z,99060.19
2022-10-31T08:38:51.678Z,99057.95
2022-10-31T08:41:18.621Z,99060.89
2022-10-31T08:43:45.830Z,99058.09
2022-10-31T08:46:13.021Z,99057.17
2022-10-31T08:48:40.511Z,99053.04
2022-10-31T08:51:07.904Z,99052.41
2022-10-31T08:53:34.590Z,99058.91
2022-10-31T08:56:21.488Z,99055.93
2022-10-31T08:58:48.194Z,99055.76
2022-10-31T09:01:15.634Z,99056.77
2022-10-31T09:03:43.376Z,99062.11
2022-10-31T09:06:11.022Z,99055.63
2022-10-31T09:08:38.114Z,99063.63
2022-10-31T09:11:05.579Z,99058.31
2022-10-31T09:13:53.839Z,99062.52
2022-10-31T09:16:35.752Z,99065.39
2022-10-31T09:19:05.212Z,99065.25
2022-10-31T09:21:35.596Z,99064.37
2022-10-31T09:24:02.482Z,99067.05
2022-10-31T09:26:29.185Z,99066.35
2022-10-31T09:29:04.592Z,99070.52
2022-10-31T09:31:31.526Z,99072.92
2022-10-31T09:34:03.951Z,99067.48
2022-10-31T09:36:34.052Z,99067.16
2022-10-31T09:39:16.379Z,99065.03
2022-10-31T09:42:04.516Z,99062.69
2022-10-31T09:44:54.436Z,99063.36
2022-10-31T09:47:26.752Z,99066.69
2022-10-31T09:50:20.745Z,99066.04
2022-10-31T09:52:58.492Z,99067.92
2022-10-31T09:55:38.431Z,99063.47
2022-10-31T09:58:06.684Z,99061.34
2022-10-31T10:00:34.435Z,99063.72
2022-10-31T10:03:20.012Z,99063.38
2022-10-31T10:05:54.792Z,99064.88
2022-10-31T10:08:33.131Z,99064.05
2022-10-31T10:11:50.526Z,99067.84
2022-10-31T10:14:18.482Z,99065.95
2022-10-31T10:17:13.526Z,99062.19
2022-10-31T10:19:49.684Z,99064.44
2022-10-31T10:22:38.722Z,99059.86
2022-10-31T10:25:17.926Z,99056.66
2022-10-31T10:28:01.183Z,99054.41
2022-10-31T10:30:42.858Z,99051.77
2022-10-31T10:33:14.451Z,99054.53
2022-10-31T10:35:50.219Z,99053.27
2022-10-31T10:38:20.511Z,99046.23
2022-10-31T10:40:48.127Z,99048.63
2022-10-31T10:43:38.495Z,99047.66
2022-10-31T10:46:43.503Z,99042.26
2022-10-31T10:49:25.600Z,99039.43
2022-10-31T10:52:07.457Z,99038.95
2022-10-31T10:54:59.237Z,99038.34
2022-10-31T10:57:56.617Z,99034.08
2022-10-31T11:00:25.023Z,99032.10
2022-10-31T11:02:52.684Z,99033.36
2022-10-31T11:05:25.760Z,99035.69
2022-10-31T11:07:52.754Z,99038.52
2022-10-31T11:10:19.678Z,99034.09
2022-10-31T11:13:02.002Z,99033.30
2022-10-31T11:15:31.972Z,99025.98
2022-10-31T11:17:58.824Z,99026.85
2022-10-31T11:20:32.402Z,99024.11
2022-10-31T11:23:04.199Z,99017.10
2022-10-31T11:25:31.925Z,99017.35
2022-10-31T11:28:04.497Z,99015.48
2022-10-31T11:30:36.916Z,99019.05
2022-10-31T11:33:05.170Z,99016.97
2022-10-31T11:35:32.321Z,99014.31
2022-10-31T11:38:01.500Z,99010.70
2022-10-31T11:40:29.100Z,99012.04
2022-10-31T11:43:00.165Z,99010.17
2022-10-31T11:45:26.838Z,99007.53
2022-10-31T11:47:59.974Z,99006.73
2022-10-31T11:50:36.211Z,99005.40
2022-10-31T11:53:04.416Z,99004.69
2022-10-31T11:55:35.926Z,98997.86
2022-10-31T11:58:03.864Z,98997.36
2022-10-31T12:00:32.404Z,98995.98
2022-10-31T12:03:29.822Z,98995.89
2022-10-31T12:06:03.940Z,98991.61
2022-10-31T12:08:33.708Z,98990.35
2022-10-31T12:11:14.649Z,98987.70
2022-10-31T12:13:49.397Z,98987.64
2022-10-31T12:16:29.782Z,98984.67
2022-10-31T12:19:04.010Z,98982.31
2022-10-31T12:21:53.461Z,98979.34
2022-10-31T12:24:21.697Z,98978.23
2022-10-31T12:27:19.240Z,98978.70
2022-10-31T12:29:56.643Z,98977.13
2022-10-31T12:32:50.698Z,98976.23
2022-10-31T12:35:46.238Z,98972.20
2022-10-31T12:38:31.867Z,98970.59
2022-10-31T12:41:24.913Z,98969.88
2022-10-31T12:44:03.881Z,98970.39
2022-10-31T12:46:37.912Z,98970.27
2022-10-31T12:49:20.963Z,98963.91
2022-10-31T12:51:52.023Z,98961.98
2022-10-31T12:54:27.428Z,98955.30
2022-10-31T12:57:24.516Z,98948.15
2022-10-31T12:59:58.935Z,98946.75
2022-10-31T13:02:32.192Z,98948.94
2022-10-31T13:05:06.209Z,98945.75
2022-10-31T13:07:38.723Z,98943.64
2022-10-31T13:10:06.541Z,98944.48
2022-10-31T13:12:37.427Z,98939.20
2022-10-31T13:15:26.147Z,98940.69
2022-10-31T13:17:57.680Z,98940.11
2022-10-31T13:20:29.817Z,98938.30
2022-10-31T13:23:49.011Z,98939.78
2022-10-31T13:26:15.632Z,98935.91
2022-10-31T13:28:53.565Z,98937.19
2022-10-31T13:31:21.779Z,98937.47
2022-10-31T13:33:53.699Z,98936.25
2022-10-31T13:36:26.289Z,98932.84
2022-10-31T13:38:55.086Z,98933.87
2022-10-31T13:41:23.000Z,98935.63
2022-10-31T13:44:13.047Z,98931.13
2022-10-31T13:49:29.587Z,98932.09
2022-10-31T13:52:11.596Z,98934.36
2022-10-31T13:54:39.612Z,98930.34
2022-10-31T13:57:37.639Z,98932.70
2022-10-31T14:00:08.786Z,98934.73
2022-10-31T14:02:48.901Z,98929.89
2022-10-31T14:05:26.823Z,98931.23
2022-10-31T14:07:56.409Z,98927.65
2022-10-31T14:10:37.427Z,98927.08
2022-10-31T14:13:09.693Z,98928.73
2022-10-31T14:15:40.564Z,98927.98
2022-10-31T14:18:24.775Z,98930.17
2022-10-31T14:20:51.550Z,98926.60
2022-10-31T14:23:36.184Z,98931.21
2022-10-31T14:26:19.668Z,98927.57
2022-10-31T14:28:48.082Z,98923.27
2022-10-31T14:31:33.171Z,98924.13
2022-10-31T14:34:03.016Z,98921.66
2022-10-31T14:36:46.525Z,98921.38
2022-10-31T14:39:30.560Z,98921.94
2022-10-31T14:42:14.020Z,98922.28
2022-10-31T14:45:11.637Z,98924.88
2022-10-31T14:47:39.407Z,98923.93
2022-10-31T14:50:24.541Z,98917.01
2022-10-31T14:52:57.434Z,98917.19
2022-10-31T14:55:25.591Z,98913.67
2022-10-31T14:58:05.304Z,98915.75
2022-10-31T15:00:34.917Z,98915.36
2022-10-31T15:03:17.086Z,98914.88
2022-10-31T15:05:50.392Z,98920.20
2022-10-31T15:08:34.081Z,98920.85
2022-10-31T15:11:10.216Z,98916.10
2022-10-31T15:13:46.718Z,98916.08
2022-10-31T15:16:16.398Z,98915.89
2022-10-31T15:18:51.008Z,98920.29
2022-10-31T15:21:21.443Z,98921.28
2022-10-31T15:23:50.855Z,98923.76
2022-10-31T15:26:21.301Z,98920.98
2022-10-31T15:29:04.693Z,98919.77
2022-10-31T15:31:32.239Z,98920.73
2022-10-31T15:34:05.213Z,98924.33
2022-10-31T15:36:37.358Z,98924.90
2022-10-31T15:39:05.572Z,98927.64
2022-10-31T15:41:39.850Z,98928.60
2022-10-31T15:44:29.098Z,98926.86
2022-10-31T15:47:16.875Z,98928.58
2022-10-31T15:49:55.514Z,98931.60
2022-10-31T15:52:39.965Z,98932.16
2022-10-31T15:55:10.350Z,98935.48
2022-10-31T15:57:43.544Z,98938.02
2022-10-31T16:00:28.501Z,98938.52
2022-10-31T16:03:11.751Z,98936.50
2022-10-31T16:05:44.856Z,98940.03
2022-10-31T16:08:30.847Z,98943.52
2022-10-31T16:10:58.439Z,98944.42
2022-10-31T16:13:30.118Z,98947.52
2022-10-31T16:16:32.949Z,98945.27
2022-10-31T16:18:51.970Z,98946.06
2022-10-31T16:21:27.426Z,98951.64
2022-10-31T16:23:58.391Z,98948.17
2022-10-31T16:26:26.266Z,98948.41
2022-10-31T16:29:03.261Z,98952.81
2022-10-31T16:31:39.666Z,98956.39
2022-10-31T16:34:26.255Z,98959.51
2022-10-31T16:36:54.040Z,98959.23
2022-10-31T16:39:21.425Z,98960.30
2022-10-31T16:41:52.804Z,98959.94
2022-10-31T16:44:23.755Z,98959.54
2022-10-31T16:47:07.022Z,98963.26
2022-10-31T16:49:33.905Z,98963.05
2022-10-31T16:52:00.573Z,98961.77
2022-10-31T16:54:30.182Z,98963.02
2022-10-31T16:56:59.818Z,98965.83
2022-10-31T16:59:27.730Z,98965.80
2022-10-31T17:01:55.908Z,98964.02
2022-10-31T17:04:23.036Z,98964.92
2022-10-31T17:06:49.773Z,98965.77
2022-10-31T17:09:16.536Z,98964.61
2022-10-31T17:11:49.768Z,98964.70
2022-10-31T17:14:18.003Z,98966.27
2022-10-31T17:16:44.762Z,98968.63
2022-10-31T17:19:12.910Z,98968.65
2022-10-31T17:21:40.829Z,98959.52
2022-10-31T17:24:12.706Z,98964.39
2022-10-31T17:26:39.411Z,98960.18
2022-10-31T17:29:06.226Z,98967.33
2022-10-31T17:31:36.360Z,98965.84
2022-10-31T17:34:05.295Z,98969.54
2022-10-31T17:36:34.450Z,98971.58
2022-10-31T17:39:01.560Z,98969.80
2022-10-31T17:41:28.223Z,98970.29
2022-10-31T17:43:56.235Z,98970.52
2022-10-31T17:46:23.148Z,98971.58
2022-10-31T17:48:50.000Z,98971.63
2022-10-31T17:51:17.162Z,98970.31
2022-10-31T17:53:43.874Z,98967.99
2022-10-31T17:56:11.229Z,98966.10
2022-10-31T17:58:38.342Z,98966.98
2022-10-31T18:01:16.383Z,98965.10
2022-10-31T18:03:43.881Z,98965.94
2022-10-31T18:06:12.132Z,98973.99
2022-10-31T18:08:40.590Z,98969.00
2022-10-31T18:11:09.785Z,98971.16
2022-10-31T18:13:37.664Z,98970.67
2022-10-31T18:16:15.587Z,98962.88
2022-10-31T18:18:42.434Z,98962.09
2022-10-31T18:21:24.621Z,98961.60
2022-10-31T18:23:55.981Z,98961.26
2022-10-31T18:26:24.349Z,98962.28
2022-10-31T18:28:51.811Z,98963.11
2022-10-31T18:31:19.159Z,98962.45
2022-10-31T18:33:46.455Z,98960.31
2022-10-31T18:36:13.328Z,98960.40
2022-10-31T18:38:41.745Z,98959.59
2022-10-31T18:41:09.287Z,98958.15
2022-10-31T18:43:36.021Z,98956.14
2022-10-31T18:46:04.835Z,98955.54
2022-10-31T18:48:32.048Z,98955.75
2022-10-31T18:53:31.630Z,98958.98
2022-10-31T18:55:59.205Z,98963.87
2022-10-31T18:58:27.274Z,98960.34
2022-10-31T19:00:55.559Z,98960.63
2022-10-31T19:03:26.177Z,98959.92
2022-10-31T19:05:55.933Z,98959.15
2022-10-31T19:08:22.873Z,98959.08
2022-10-31T19:10:49.641Z,98958.39
2022-10-31T19:13:16.352Z,98948.88
2022-10-31T19:15:43.584Z,98948.59
2022-10-31T19:18:10.366Z,98947.57
2022-10-31T19:20:39.417Z,98949.75
2022-10-31T19:23:06.880Z,98947.27
2022-10-31T19:25:33.650Z,98949.56
2022-10-31T19:28:00.759Z,98950.10
2022-10-31T19:30:27.756Z,98947.33
2022-10-31T19:32:56.474Z,98948.61
2022-10-31T19:35:23.134Z,98952.91
2022-10-31T19:37:49.804Z,98952.28
2022-10-31T19:40:16.688Z,98954.59
2022-10-31T19:42:43.382Z,98950.68
2022-10-31T19:45:11.151Z,98952.52
2022-10-31T19:47:38.101Z,98945.57
2022-10-31T19:50:05.143Z,98946.28
2022-10-31T19:52:34.720Z,98946.04
2022-10-31T19:55:01.661Z,98942.89
2022-10-31T19:57:56.276Z,98941.19
2022-10-31T20:00:15.528Z,98939.66
2022-10-31T20:02:42.181Z,98939.56
2022-10-31T20:05:09.291Z,98937.30
2022-10-31T20:07:36.129Z,98940.41
2022-10-31T20:10:02.903Z,98946.08
2022-10-31T20:12:29.645Z,98943.88
2022-10-31T20:14:56.363Z,98939.52
2022-10-31T20:17:23.079Z,98938.20
2022-10-31T20:19:49.899Z,98935.00
2022-10-31T20:22:16.781Z,98938.05
2022-10-31T20:24:43.596Z,98934.17
2022-10-31T20:27:10.297Z,98934.27
2022-10-31T20:29:36.967Z,98934.86
2022-10-31T20:32:03.893Z,98932.33
2022-10-31T20:34:30.855Z,98932.80
2022-10-31T20:36:57.656Z,98932.33
2022-10-31T20:39:24.730Z,98933.19
2022-10-31T20:41:51.482Z,98928.77
2022-10-31T20:44:18.174Z,98932.33
2022-10-31T20:46:44.985Z,98927.48
2022-10-31T20:49:11.665Z,98925.17
2022-10-31T20:51:38.628Z,98927.04
2022-10-31T20:54:06.868Z,98928.99
2022-10-31T20:56:33.674Z,98927.80
2022-10-31T20:59:00.436Z,98925.88
2022-10-31T21:01:30.264Z,98922.31
2022-10-31T21:03:58.733Z,98925.67
2022-10-31T21:06:26.068Z,98922.68
2022-10-31T21:08:53.849Z,98919.67
2022-10-31T21:11:23.133Z,98919.30
2022-10-31T21:13:50.789Z,98916.03
2022-10-31T21:16:20.939Z,98916.23
2022-10-31T21:18:49.399Z,98916.52
2022-10-31T21:21:18.184Z,98916.20
2022-10-31T21:23:45.825Z,98915.42
2022-10-31T21:26:22.740Z,98913.65
2022-10-31T21:28:50.692Z,98907.48
2022-10-31T21:31:18.545Z,98909.42
2022-10-31T21:33:46.291Z,98905.56
2022-10-31T21:36:14.326Z,98905.27
2022-10-31T21:38:41.599Z,98900.60
2022-10-31T21:41:09.761Z,98898.33
2022-10-31T21:43:38.324Z,98892.20
2022-10-31T21:46:07.602Z,98893.48
2022-10-31T21:48:39.091Z,98890.99
2022-10-31T21:51:09.047Z,98891.86
2022-10-31T21:53:52.196Z,98887.48
2022-10-31T21:56:18.918Z,98881.54
2022-10-31T21:58:46.067Z,98881.55
2022-10-31T22:01:12.903Z,98875.87
2022-10-31T22:03:41.283Z,98877.50
2022-10-31T22:06:09.944Z,98877.57
2022-10-31T22:08:37.008Z,98875.14
2022-10-31T22:11:05.494Z,98877.30
2022-10-31T22:13:33.915Z,98882.77
2022-10-31T22:16:02.228Z,98882.11
2022-10-31T22:18:29.185Z,98882.85
2022-10-31T22:21:20.065Z,98881.27
2022-10-31T22:23:52.106Z,98876.48
2022-10-31T22:26:19.497Z,98872.74
2022-10-31T22:28:50.355Z,98869.18
2022-10-31T22:31:19.055Z,98866.21
2022-10-31T22:33:47.183Z,98862.95
2022-10-31T22:36:16.956Z,98862.75
2022-10-31T22:38:45.170Z,98857.80
2022-10-31T22:41:14.203Z,98854.88
2022-10-31T22:43:41.509Z,98850.67
2022-10-31T22:46:12.495Z,98844.30
2022-10-31T22:48:43.187Z,98845.81
2022-10-31T22:51:13.638Z,98843.19
2022-10-31T22:53:41.015Z,98843.45
2022-10-31T22:56:10.121Z,98843.36
2022-10-31T22:58:37.145Z,98841.78
2022-10-31T23:01:09.221Z,98843.02
2022-10-31T23:03:36.871Z,98842.93
2022-10-31T23:06:05.541Z,98840.61
2022-10-31T23:08:35.356Z,98838.39
2022-10-31T23:11:04.414Z,98836.09
2022-10-31T23:13:47.250Z,98835.48
2022-10-31T23:16:14.057Z,98826.64
2022-10-31T23:18:55.737Z,98824.92
2022-10-31T23:21:39.864Z,98824.55
2022-10-31T23:24:06.709Z,98827.92
2022-10-31T23:26:48.938Z,98822.90
2022-10-31T23:29:15.684Z,98825.09
2022-10-31T23:31:42.392Z,98820.85
2022-10-31T23:34:09.482Z,98821.52
2022-10-31T23:36:36.178Z,98819.09
2022-10-31T23:39:02.952Z,98818.36
2022-10-31T23:41:29.702Z,98815.84
2022-10-31T23:43:56.646Z,98812.92
2022-10-31T23:46:23.338Z,98817.02
2022-10-31T23:48:51.009Z,98811.68
2022-10-31T23:51:17.799Z,98808.98
2022-10-31T23:53:45.727Z,98803.30
2022-10-31T23:56:13.774Z,98802.88
2022-10-31T23:58:40.982Z,98801.63
